This is the latest recevied weather packets stored in our database for station/object W4MJZ-1. If no packets are shown the sender has not sent any weather packets the latest 10 day(s).
| Time | Temp. | Humidity | Pressure | Rain* | Wind** | Luminosity | Snow |
|---|---|---|---|---|---|---|---|
| 1777657040 | 25.56° C | 29% | 1021.5 hPa | 0 mm | - | - | - |
| 1777656740 | 24.44° C | 30% | 1021.5 hPa | 0 mm | - | - | - |
| 1777656439 | 24.44° C | 31% | 1021.5 hPa | 0 mm | - | - | - |
| 1777656200 | 23.33° C | 33% | 1021.5 hPa | 0 mm | - | - | - |
| 1777656139 | 24.44° C | 31% | 1021.5 hPa | 0 mm | - | - | - |
| 1777655839 | 23.33° C | 33% | 1021.5 hPa | 0 mm | - | - | - |
| 1777655539 | 23.33° C | 33% | 1021.5 hPa | 0 mm | - | - | - |
| 1777655532 | 23.33° C | 33% | 1021.5 hPa | 0 mm | - | - | - |
| 1777655239 | 23.33° C | 33% | 1021.5 hPa | 0 mm | - | - | - |
| 1777655197 | 23.89° C | 33% | 1021.5 hPa | 0 mm | - | - | - |
| 1777654978 | 23.89° C | 33% | 1021.5 hPa | 0 mm | - | - | - |
| 1777654939 | 23.89° C | 33% | 1021.5 hPa | 0 mm | - | - | - |
| 1777654639 | 23.89° C | 32% | 1021.5 hPa | 0 mm | - | - | - |
| 1777654339 | 23.89° C | 32% | 1021.5 hPa | 0 mm | - | - | - |
| 1777654039 | 22.78° C | 36% | 1021.5 hPa | 0 mm | - | - | - |
| 1777653991 | 22.78° C | 35% | 1021.5 hPa | 0 mm | - | - | - |
| 1777653739 | 22.78° C | 35% | 1021.5 hPa | 0 mm | - | - | - |
| 1777653439 | 22.78° C | 36% | 1021.5 hPa | 0 mm | - | - | - |
| 1777653304 | 22.22° C | 36% | 1021.5 hPa | 0 mm | - | - | - |
| 1777653139 | 22.22° C | 36% | 1021.5 hPa | 0 mm | - | - | - |
| 1777652840 | 21.67° C | 36% | 1021.5 hPa | 0 mm | - | - | - |
| 1777652731 | 21.11° C | 38% | 1021.5 hPa | 0 mm | - | - | - |
| 1777652540 | 21.11° C | 38% | 1021.5 hPa | 0 mm | - | - | - |
| 1777652422 | 22.22° C | 38% | 1021.5 hPa | 0 mm | - | - | - |
| 1777652239 | 22.22° C | 38% | 1021.5 hPa | 0 mm | - | - | - |
* Rain latest hour (hover to see other rain measurements)
** Current wind speed in m/s (hover to see current wind gust speed)